Time;durP1;ratioP1;P1;durP2;ratioP2;P2;SDS_P1;SDS_P2;PMS_P1;PMS_P2;Temp;Humidity;BMP_temperature;BMP_pressure;BME280_temperature;BME280_humidity;BME280_pressure;Samples;Min_cycle;Max_cycle;Signal;HPM_P1;HPM_P2
2023/01/28 00:00:08;;;;;;;20.73;13.07;;;7.40;1.00;;;;;;5072597;28;20028;-52
2023/01/28 00:02:36;;;;;;;25.20;14.03;;;7.30;1.00;;;;;;5072148;28;20501;-52
2023/01/28 00:05:02;;;;;;;20.70;12.70;;;7.30;1.00;;;;;;5070727;28;20020;-52
2023/01/28 00:07:28;;;;;;;22.23;12.60;;;7.30;1.00;;;;;;5071932;28;20089;-53
2023/01/28 00:09:54;;;;;;;21.57;13.80;;;7.30;1.00;;;;;;5072052;28;20470;-53
2023/01/28 00:12:20;;;;;;;23.63;14.30;;;7.30;1.00;;;;;;5072080;28;20032;-50
2023/01/28 00:14:46;;;;;;;21.90;14.43;;;7.30;1.00;;;;;;5070303;28;20397;-51
2023/01/28 00:17:12;;;;;;;19.60;13.60;;;7.30;1.00;;;;;;5071976;28;20093;-52
2023/01/28 00:19:38;;;;;;;22.97;14.13;;;7.30;1.00;;;;;;5070365;28;20814;-52
2023/01/28 00:22:04;;;;;;;21.57;13.67;;;7.30;1.00;;;;;;5072097;28;20082;-52
2023/01/28 00:24:30;;;;;;;23.47;13.80;;;7.30;1.00;;;;;;5072185;28;20027;-51
2023/01/28 00:26:55;;;;;;;26.37;15.50;;;7.20;1.00;;;;;;5070290;28;20143;-52
2023/01/28 00:29:21;;;;;;;33.53;21.43;;;7.20;1.00;;;;;;5071868;28;20028;-50
2023/01/28 00:31:46;;;;;;;30.70;20.30;;;7.20;1.00;;;;;;5070426;28;20036;-50
2023/01/28 00:34:12;;;;;;;33.83;22.23;;;7.20;1.00;;;;;;5071636;28;20016;-52
2023/01/28 00:36:38;;;;;;;34.77;23.03;;;7.30;1.00;;;;;;5072047;28;20104;-53
2023/01/28 00:39:05;;;;;;;30.17;20.77;;;7.20;1.00;;;;;;5071711;28;20120;-52
2023/01/28 00:41:31;;;;;;;32.43;20.20;;;7.20;1.00;;;;;;5071793;28;20028;-52
2023/01/28 00:43:57;;;;;;;28.33;19.60;;;7.30;1.00;;;;;;5071751;28;20066;-51
2023/01/28 00:46:25;;;;;;;28.93;19.63;;;7.20;1.00;;;;;;5071546;28;20469;-51
2023/01/28 00:48:51;;;;;;;28.40;18.27;;;7.20;1.00;;;;;;5071580;28;20035;-50
2023/01/28 00:51:18;;;;;;;30.27;19.47;;;7.20;1.00;;;;;;5071264;28;20054;-52
2023/01/28 00:53:45;;;;;;;29.43;17.70;;;7.20;1.00;;;;;;5071565;28;20021;-51
2023/01/28 00:56:14;;;;;;;30.43;18.27;;;7.20;1.00;;;;;;5071495;28;20459;-51
2023/01/28 00:58:40;;;;;;;26.83;17.43;;;7.20;1.00;;;;;;5071426;28;20439;-52
2023/01/28 01:01:21;;;;;;;23.17;16.03;;;7.20;1.00;;;;;;5071456;28;20174;-50
2023/01/28 01:03:47;;;;;;;26.10;17.53;;;7.20;1.00;;;;;;5060442;28;20513;-50
2023/01/28 01:06:14;;;;;;;24.30;17.00;;;7.30;1.00;;;;;;5071318;28;20017;-53
2023/01/28 01:08:41;;;;;;;26.43;17.40;;;7.30;1.00;;;;;;5057896;28;20033;-51
2023/01/28 01:11:10;;;;;;;27.70;17.10;;;7.30;1.00;;;;;;5070735;28;20028;-51
2023/01/28 01:13:36;;;;;;;25.33;17.50;;;7.30;1.00;;;;;;5071336;28;20488;-51
2023/01/28 01:16:07;;;;;;;26.40;16.53;;;7.20;1.00;;;;;;5071248;28;20025;-53
2023/01/28 01:18:34;;;;;;;29.20;17.70;;;7.20;1.00;;;;;;5071512;28;20694;-50
2023/01/28 01:21:00;;;;;;;29.90;17.07;;;7.10;1.00;;;;;;5071244;28;20490;-50
2023/01/28 01:23:32;;;;;;;31.90;17.73;;;7.10;1.00;;;;;;5071450;28;20017;-51
2023/01/28 01:25:57;;;;;;;29.57;17.13;;;7.20;1.00;;;;;;5069732;28;20052;-52
2023/01/28 01:28:23;;;;;;;30.17;19.33;;;7.20;1.00;;;;;;5074297;28;20505;-51
2023/01/28 01:30:49;;;;;;;30.40;17.53;;;7.20;1.00;;;;;;5074562;28;20111;-51
2023/01/28 01:33:15;;;;;;;29.97;18.27;;;7.10;1.00;;;;;;5060629;28;20032;-50
2023/01/28 01:35:41;;;;;;;28.33;17.70;;;7.20;1.00;;;;;;5074506;28;20017;-51
2023/01/28 01:38:07;;;;;;;33.70;18.97;;;7.10;1.00;;;;;;5074578;28;20040;-54
2023/01/28 01:40:33;;;;;;;30.83;16.67;;;7.20;1.00;;;;;;5074910;28;20055;-50
2023/01/28 01:42:59;;;;;;;32.30;18.87;;;7.20;1.00;;;;;;5069627;28;20078;-52
2023/01/28 01:45:27;;;;;;;30.87;19.87;;;7.20;1.00;;;;;;5073078;28;20017;-50
2023/01/28 01:48:01;;;;;;;32.30;19.10;;;7.20;1.00;;;;;;5074398;28;20028;-55
2023/01/28 01:50:41;;;;;;;31.45;18.92;;;7.10;1.00;;;;;;5066890;28;20103;-56
2023/01/28 01:53:12;;;;;;;35.07;19.07;;;7.00;1.00;;;;;;5074243;28;20094;-55
2023/01/28 01:55:40;;;;;;;27.00;18.20;;;7.10;1.00;;;;;;5074087;28;20020;-55
2023/01/28 01:58:10;;;;;;;32.57;19.77;;;7.10;1.00;;;;;;5074408;28;20063;-51
2023/01/28 02:00:36;;;;;;;27.13;18.13;;;7.00;1.00;;;;;;5073933;28;20053;-51
2023/01/28 02:03:02;;;;;;;31.07;19.00;;;7.00;1.00;;;;;;5074125;28;20099;-50
2023/01/28 02:05:27;;;;;;;30.70;20.03;;;6.90;1.00;;;;;;5074410;28;20036;-52
2023/01/28 02:10:43;;;;;;;29.13;18.70;;;6.90;1.00;;;;;;5066048;28;20064;-51
2023/01/28 02:13:09;;;;;;;30.80;19.60;;;7.00;1.00;;;;;;5073314;28;20024;-50
2023/01/28 02:15:35;;;;;;;30.10;19.07;;;7.00;1.00;;;;;;5073273;28;20040;-51
2023/01/28 02:18:00;;;;;;;32.20;18.67;;;7.00;1.00;;;;;;5073019;28;20531;-50
2023/01/28 02:20:35;;;;;;;30.43;18.57;;;6.90;1.00;;;;;;5073161;28;20028;-53
2023/01/28 02:23:10;;;;;;;29.48;18.20;;;7.00;1.00;;;;;;5073043;28;20028;-51
2023/01/28 02:26:20;;;;;;;30.88;19.13;;;6.90;1.00;;;;;;5071540;28;20569;-51
2023/01/28 02:29:07;;;;;;;28.20;18.93;;;6.90;1.00;;;;;;5072875;28;20024;-53
2023/01/28 02:31:41;;;;;;;32.03;19.00;;;6.90;1.00;;;;;;5072936;28;20362;-50
2023/01/28 02:34:23;;;;;;;30.27;19.35;;;6.90;1.00;;;;;;5072738;28;20024;-51
2023/01/28 02:37:24;;;;;;;28.03;17.43;;;6.90;1.00;;;;;;5072727;28;20032;-54
2023/01/28 02:40:15;;;;;;;24.53;17.87;;;6.80;1.00;;;;;;5017908;28;20037;-51
2023/01/28 02:42:41;;;;;;;27.80;18.97;;;6.80;1.00;;;;;;5065688;28;20064;-50
2023/01/28 02:45:24;;;;;;;31.77;18.33;;;6.80;1.00;;;;;;5072627;28;20074;-51
2023/01/28 02:47:56;;;;;;;31.23;18.97;;;6.70;1.00;;;;;;5072376;28;20490;-51
2023/01/28 02:50:23;;;;;;;30.67;19.30;;;6.70;1.00;;;;;;5072617;28;20016;-51
2023/01/28 02:56:16;;;;;;;29.23;19.40;;;6.70;1.00;;;;;;5073194;28;20066;-52
2023/01/28 02:58:53;;;;;;;29.93;19.17;;;6.70;1.00;;;;;;5072704;28;20213;-50
2023/01/28 03:01:25;;;;;;;32.70;19.40;;;6.70;1.00;;;;;;5073048;28;20021;-53
2023/01/28 03:04:03;;;;;;;33.23;18.77;;;6.60;1.00;;;;;;5073128;28;20094;-50
2023/01/28 03:07:03;;;;;;;27.33;19.07;;;6.70;1.00;;;;;;5071555;28;20474;-50
2023/01/28 03:09:29;;;;;;;27.37;19.93;;;6.70;1.00;;;;;;5061599;28;20099;-51
2023/01/28 03:37:30;;;;;;;30.87;18.73;;;6.60;1.00;;;;;;5072522;28;20108;-51
2023/01/28 03:40:01;;;;;;;32.83;19.20;;;6.60;1.00;;;;;;5070908;28;20331;-51
2023/01/28 03:42:26;;;;;;;33.23;19.87;;;6.50;1.00;;;;;;5072205;28;20033;-52
2023/01/28 03:44:52;;;;;;;29.83;19.87;;;6.60;1.00;;;;;;5072172;28;20024;-52
2023/01/28 03:47:26;;;;;;;29.83;18.33;;;6.60;1.00;;;;;;5072222;28;20043;-52
2023/01/28 03:49:54;;;;;;;28.50;18.90;;;6.60;1.00;;;;;;5071496;28;20051;-50
2023/01/28 03:52:29;;;;;;;29.60;19.10;;;6.60;1.00;;;;;;5072523;28;20428;-52
2023/01/28 03:54:54;;;;;;;33.13;21.90;;;6.60;1.00;;;;;;5072020;28;20352;-53
2023/01/28 03:57:23;;;;;;;31.10;19.30;;;6.60;1.00;;;;;;5072352;28;20020;-53
2023/01/28 03:59:49;;;;;;;30.37;20.27;;;6.50;1.00;;;;;;5071979;28;20021;-53
2023/01/28 04:02:16;;;;;;;30.73;19.37;;;6.60;1.00;;;;;;5072179;28;20035;-54
2023/01/28 04:04:42;;;;;;;31.40;20.23;;;6.50;1.00;;;;;;5072003;28;20016;-50
2023/01/28 04:07:09;;;;;;;31.83;20.33;;;6.60;1.00;;;;;;5071907;28;20024;-49
2023/01/28 04:09:35;;;;;;;30.63;19.80;;;6.60;1.00;;;;;;5071958;28;20019;-49
2023/01/28 04:12:02;;;;;;;33.13;20.60;;;6.50;1.00;;;;;;5072156;28;20043;-51
2023/01/28 04:14:28;;;;;;;31.33;20.17;;;6.60;1.00;;;;;;5071896;28;20465;-53
2023/01/28 04:16:54;;;;;;;30.80;19.90;;;6.60;1.00;;;;;;5071826;28;20028;-52
2023/01/28 04:19:20;;;;;;;32.17;20.37;;;6.60;1.00;;;;;;5071809;28;20094;-50
2023/01/28 04:21:46;;;;;;;32.40;19.87;;;6.60;1.00;;;;;;5071878;28;20428;-52
2023/01/28 04:24:12;;;;;;;32.07;20.97;;;6.60;1.00;;;;;;5072079;28;20033;-50
2023/01/28 04:26:38;;;;;;;33.53;20.90;;;6.60;1.00;;;;;;5071684;28;20040;-50
2023/01/28 04:29:04;;;;;;;32.53;19.20;;;6.60;1.00;;;;;;5071680;28;20055;-51
2023/01/28 04:31:31;;;;;;;29.93;20.00;;;6.60;1.00;;;;;;5069397;28;20083;-53
2023/01/28 04:33:56;;;;;;;32.53;20.50;;;6.60;1.00;;;;;;5071750;28;20085;-53
2023/01/28 04:36:23;;;;;;;26.20;18.87;;;6.60;1.00;;;;;;5071621;28;20021;-55
2023/01/28 04:38:48;;;;;;;30.50;19.57;;;6.50;1.00;;;;;;5071837;28;20028;-51
2023/01/28 04:41:14;;;;;;;31.10;19.50;;;6.60;1.00;;;;;;5071742;28;20024;-53
2023/01/28 04:43:40;;;;;;;32.07;19.77;;;6.60;1.00;;;;;;5070393;28;20112;-53
2023/01/28 04:46:06;;;;;;;32.83;18.57;;;6.60;1.00;;;;;;5071739;28;20112;-50
2023/01/28 04:48:33;;;;;;;29.37;17.70;;;6.50;1.00;;;;;;5071486;28;20128;-50
2023/01/28 04:50:59;;;;;;;29.47;18.30;;;6.60;1.00;;;;;;5071431;28;20519;-51
2023/01/28 04:53:25;;;;;;;31.93;18.43;;;6.70;1.00;;;;;;5071782;28;20020;-54
2023/01/28 04:55:51;;;;;;;30.67;18.27;;;6.70;1.00;;;;;;5072079;28;20085;-51
2023/01/28 04:58:16;;;;;;;27.20;17.27;;;6.70;1.00;;;;;;5071667;28;20020;-54
2023/01/28 05:00:42;;;;;;;28.80;17.47;;;6.70;1.00;;;;;;5071946;28;20945;-51
2023/01/28 05:03:07;;;;;;;27.43;18.27;;;6.70;1.00;;;;;;5075557;28;20020;-55
2023/01/28 05:05:33;;;;;;;29.07;18.27;;;6.70;1.00;;;;;;5075366;28;20382;-49
2023/01/28 05:07:59;;;;;;;28.10;16.83;;;6.70;1.00;;;;;;5075047;28;20417;-52
2023/01/28 05:10:26;;;;;;;33.43;18.60;;;6.60;1.00;;;;;;5075125;28;20050;-56
2023/01/28 05:12:51;;;;;;;29.77;18.23;;;6.70;1.00;;;;;;5074933;28;20036;-53
2023/01/28 05:15:18;;;;;;;30.40;17.50;;;6.70;1.00;;;;;;5075109;28;20569;-52
2023/01/28 05:17:44;;;;;;;29.80;17.60;;;6.60;1.00;;;;;;5074679;28;20504;-53
2023/01/28 05:20:12;;;;;;;29.50;17.97;;;6.60;1.00;;;;;;5074914;28;20108;-52
2023/01/28 05:22:39;;;;;;;27.57;17.93;;;6.70;1.00;;;;;;5074901;28;20021;-51
2023/01/28 05:25:05;;;;;;;30.00;18.60;;;6.60;1.00;;;;;;5075002;28;20103;-52
2023/01/28 05:27:31;;;;;;;26.33;16.53;;;6.60;1.00;;;;;;5074547;28;20056;-52
2023/01/28 05:29:58;;;;;;;27.57;17.97;;;6.60;1.00;;;;;;5074697;28;20096;-50
2023/01/28 05:32:24;;;;;;;28.17;18.10;;;6.70;1.00;;;;;;5074690;28;20051;-51
2023/01/28 05:34:49;;;;;;;28.27;17.90;;;6.60;1.00;;;;;;5074621;28;20450;-52
2023/01/28 05:37:15;;;;;;;28.97;17.57;;;6.60;1.00;;;;;;5074878;28;20024;-50
2023/01/28 05:39:41;;;;;;;32.73;16.80;;;6.70;1.00;;;;;;5074795;28;20029;-50
2023/01/28 05:42:06;;;;;;;26.67;17.00;;;6.40;1.00;;;;;;5074651;28;20025;-51
2023/01/28 05:44:32;;;;;;;28.97;17.17;;;6.50;1.00;;;;;;5074443;28;20032;-50
2023/01/28 05:46:58;;;;;;;31.13;18.47;;;6.60;1.00;;;;;;5074730;28;20040;-52
2023/01/28 05:49:25;;;;;;;29.13;17.87;;;6.60;1.00;;;;;;5074392;28;20105;-51
2023/01/28 05:51:51;;;;;;;29.53;17.67;;;6.50;1.00;;;;;;5074303;28;20032;-52
2023/01/28 05:54:17;;;;;;;25.57;15.80;;;6.60;1.00;;;;;;5074627;28;20027;-49
2023/01/28 05:56:43;;;;;;;28.63;18.00;;;6.60;1.00;;;;;;5074178;28;20104;-52
2023/01/28 05:59:10;;;;;;;26.30;16.73;;;6.40;1.00;;;;;;5074128;28;20070;-54
2023/01/28 06:01:36;;;;;;;35.47;18.47;;;6.40;1.00;;;;;;5074122;28;20052;-53
2023/01/28 06:04:02;;;;;;;28.83;17.00;;;6.40;1.00;;;;;;5074083;28;20148;-50
2023/01/28 06:06:28;;;;;;;28.37;18.90;;;6.20;1.00;;;;;;5074076;28;20016;-51
2023/01/28 06:08:54;;;;;;;29.80;17.90;;;6.30;1.00;;;;;;5074322;28;20036;-50
2023/01/28 06:11:20;;;;;;;28.07;17.43;;;6.30;1.00;;;;;;5074281;28;20055;-51
2023/01/28 06:13:45;;;;;;;27.63;17.47;;;6.30;1.00;;;;;;5073268;28;20056;-50
2023/01/28 06:16:11;;;;;;;32.63;19.63;;;6.30;1.00;;;;;;5073807;28;20370;-50
2023/01/28 06:18:37;;;;;;;26.77;17.90;;;6.30;1.00;;;;;;5073819;28;20091;-53
2023/01/28 06:21:03;;;;;;;29.37;17.00;;;6.20;1.00;;;;;;5072311;28;20028;-50
2023/01/28 06:23:28;;;;;;;28.87;18.97;;;6.20;1.00;;;;;;5073990;28;20382;-55
2023/01/28 06:25:55;;;;;;;28.50;18.03;;;6.20;1.00;;;;;;5073611;28;20053;-54
2023/01/28 06:28:23;;;;;;;28.83;18.03;;;6.20;1.00;;;;;;5073586;28;20078;-51
2023/01/28 06:30:50;;;;;;;28.00;16.97;;;6.20;1.00;;;;;;5073516;28;20020;-53
2023/01/28 06:33:16;;;;;;;29.00;17.67;;;6.20;1.00;;;;;;5073598;28;20025;-54
2023/01/28 06:35:41;;;;;;;29.60;17.70;;;6.20;1.00;;;;;;5073551;28;20024;-50
2023/01/28 06:38:07;;;;;;;29.10;17.23;;;6.20;1.00;;;;;;5073775;28;20036;-51
2023/01/28 06:40:33;;;;;;;28.13;18.67;;;6.20;1.00;;;;;;5073307;28;20031;-53
2023/01/28 06:42:58;;;;;;;28.73;16.97;;;6.20;1.00;;;;;;5073330;28;20056;-53
2023/01/28 06:45:24;;;;;;;28.57;17.20;;;6.20;1.00;;;;;;5073217;28;20470;-53
2023/01/28 06:47:50;;;;;;;29.37;18.03;;;6.20;1.00;;;;;;5073363;28;20036;-53
2023/01/28 06:50:16;;;;;;;28.93;18.00;;;6.20;1.00;;;;;;5073131;28;20056;-52
2023/01/28 06:52:41;;;;;;;31.53;18.53;;;6.20;1.00;;;;;;5073006;28;20410;-53
2023/01/28 06:55:08;;;;;;;30.03;18.67;;;6.10;1.00;;;;;;5073213;28;20086;-51
2023/01/28 06:57:36;;;;;;;30.67;17.83;;;6.00;1.00;;;;;;5073030;28;20552;-52
2023/01/28 07:00:03;;;;;;;28.57;18.63;;;6.00;1.00;;;;;;5061012;28;20383;-52
2023/01/28 07:02:28;;;;;;;30.60;19.03;;;5.90;1.00;;;;;;5069443;28;20013;-50
2023/01/28 07:04:54;;;;;;;32.27;18.87;;;6.00;1.00;;;;;;5073382;28;20170;-50
2023/01/28 07:07:19;;;;;;;26.53;17.93;;;6.00;1.00;;;;;;5072808;28;20021;-54
2023/01/28 07:09:45;;;;;;;29.30;19.37;;;6.10;1.00;;;;;;5071785;28;20025;-53
2023/01/28 07:12:11;;;;;;;31.30;19.10;;;6.00;1.00;;;;;;5072814;28;20493;-50
2023/01/28 07:14:36;;;;;;;33.77;19.40;;;6.00;1.00;;;;;;5071071;28;20070;-51
2023/01/28 07:17:02;;;;;;;30.70;19.50;;;5.90;1.00;;;;;;5071833;28;20040;-55
2023/01/28 07:19:27;;;;;;;31.37;19.80;;;5.90;1.00;;;;;;5072792;28;20370;-50
2023/01/28 07:21:57;;;;;;;33.27;21.57;;;5.80;1.00;;;;;;5072604;28;20036;-52
2023/01/28 07:24:22;;;;;;;34.47;20.57;;;5.90;1.00;;;;;;5069825;28;20027;-55
2023/01/28 07:26:48;;;;;;;38.53;22.43;;;5.70;1.00;;;;;;5068461;28;20044;-57
2023/01/28 07:29:13;;;;;;;31.50;20.00;;;5.70;1.00;;;;;;5072649;28;20378;-53
2023/01/28 07:31:39;;;;;;;33.13;19.70;;;5.70;1.00;;;;;;5072337;28;20037;-51
2023/01/28 07:34:04;;;;;;;34.97;20.10;;;5.60;1.00;;;;;;5072575;28;20023;-52
2023/01/28 07:36:30;;;;;;;31.97;19.80;;;5.70;1.00;;;;;;5072128;28;20115;-53
2023/01/28 07:38:56;;;;;;;34.90;21.33;;;5.80;1.00;;;;;;5072099;28;20027;-50
2023/01/28 07:41:21;;;;;;;30.47;20.87;;;5.80;1.00;;;;;;5072312;28;20094;-52
2023/01/28 07:43:47;;;;;;;32.57;20.27;;;5.60;1.00;;;;;;5072057;28;20448;-53
2023/01/28 07:46:13;;;;;;;30.80;19.53;;;5.70;1.00;;;;;;5072131;28;20386;-49
2023/01/28 07:48:38;;;;;;;35.47;20.50;;;5.90;1.00;;;;;;5072009;28;20332;-50
2023/01/28 07:51:04;;;;;;;30.43;19.83;;;5.90;1.00;;;;;;5071855;28;20032;-50
2023/01/28 07:53:30;;;;;;;33.10;19.90;;;5.90;1.00;;;;;;5072102;28;20017;-51
2023/01/28 07:56:00;;;;;;;30.47;20.37;;;5.90;1.00;;;;;;5071886;28;20106;-49
2023/01/28 07:58:25;;;;;;;32.03;21.73;;;5.80;1.00;;;;;;5072299;28;20323;-51
2023/01/28 08:00:57;;;;;;;33.10;21.00;;;6.00;1.00;;;;;;5071767;28;20074;-51
2023/01/28 08:03:23;;;;;;;34.50;21.47;;;6.00;1.00;;;;;;5072128;28;20024;-54
2023/01/28 08:05:51;;;;;;;33.73;20.03;;;6.00;1.00;;;;;;5072153;28;20021;-50
2023/01/28 08:08:17;;;;;;;37.83;21.77;;;6.00;1.00;;;;;;5072092;28;20017;-54
2023/01/28 08:10:43;;;;;;;32.20;20.27;;;6.10;1.00;;;;;;5071978;28;20040;-50
2023/01/28 08:13:10;;;;;;;43.30;23.93;;;6.10;1.00;;;;;;5072366;28;20036;-54
2023/01/28 08:15:36;;;;;;;36.67;22.90;;;5.90;1.00;;;;;;5070519;28;20066;-54
2023/01/28 08:18:03;;;;;;;33.03;21.43;;;5.90;1.00;;;;;;5072176;28;20025;-52
2023/01/28 08:20:29;;;;;;;35.33;22.33;;;5.80;1.00;;;;;;5071843;28;20047;-52
2023/01/28 08:23:10;;;;;;;36.73;21.63;;;6.00;1.00;;;;;;5072195;28;20031;-51
2023/01/28 08:25:36;;;;;;;32.37;21.43;;;5.90;1.00;;;;;;5071723;28;20055;-50
2023/01/28 08:28:03;;;;;;;37.53;22.47;;;6.00;1.00;;;;;;5071764;28;20478;-53
2023/01/28 08:30:28;;;;;;;36.77;22.17;;;6.10;1.00;;;;;;5071843;28;20095;-52
2023/01/28 08:32:56;;;;;;;37.40;21.30;;;6.20;1.00;;;;;;5071697;28;20040;-51
2023/01/28 08:35:23;;;;;;;36.50;22.93;;;6.00;1.00;;;;;;5071662;28;20431;-52
2023/01/28 08:37:48;;;;;;;36.37;22.63;;;6.10;1.00;;;;;;5075881;28;20021;-50
2023/01/28 08:40:14;;;;;;;36.10;21.87;;;6.20;1.00;;;;;;5075814;28;20058;-54
2023/01/28 08:42:45;;;;;;;35.47;21.40;;;6.30;1.00;;;;;;5075811;28;20028;-53
2023/01/28 08:45:11;;;;;;;35.93;21.27;;;6.30;1.00;;;;;;5075740;28;20119;-51
2023/01/28 08:47:54;;;;;;;38.27;22.00;;;6.40;1.00;;;;;;5075667;28;20089;-53
2023/01/28 08:50:21;;;;;;;41.43;22.67;;;6.40;1.00;;;;;;5075409;28;20138;-50
2023/01/28 08:52:48;;;;;;;37.50;21.27;;;6.30;1.00;;;;;;5075576;28;20032;-53
2023/01/28 08:55:14;;;;;;;35.80;19.70;;;6.40;1.00;;;;;;5075542;28;20093;-51
2023/01/28 08:57:40;;;;;;;37.03;20.57;;;6.40;1.00;;;;;;5075582;28;20100;-51
2023/01/28 09:00:13;;;;;;;33.17;19.90;;;6.50;1.00;;;;;;5075310;28;20112;-50
2023/01/28 09:02:38;;;;;;;30.20;20.03;;;6.50;1.00;;;;;;5067164;28;20023;-51
2023/01/28 09:05:05;;;;;;;33.50;21.20;;;6.50;1.00;;;;;;5075455;28;20024;-52
2023/01/28 09:07:33;;;;;;;34.03;20.70;;;6.60;1.00;;;;;;5075212;28;20423;-52
2023/01/28 09:09:58;;;;;;;33.33;20.77;;;6.60;1.00;;;;;;5075253;28;20493;-52
2023/01/28 09:12:24;;;;;;;35.37;20.77;;;6.60;1.00;;;;;;5074462;28;20039;-53
2023/01/28 09:14:53;;;;;;;37.77;20.40;;;6.60;1.00;;;;;;5073612;28;20035;-54
2023/01/28 09:17:20;;;;;;;29.57;19.63;;;6.60;1.00;;;;;;5073858;28;20127;-53
2023/01/28 09:19:45;;;;;;;30.67;19.57;;;6.70;1.00;;;;;;5075028;28;20084;-53
2023/01/28 09:22:11;;;;;;;29.40;19.53;;;6.70;1.00;;;;;;5074785;28;20467;-50
2023/01/28 09:24:37;;;;;;;31.50;20.27;;;6.70;1.00;;;;;;5074610;28;20107;-55
2023/01/28 09:27:02;;;;;;;31.80;20.27;;;6.80;1.00;;;;;;5074599;28;20080;-54
2023/01/28 09:29:28;;;;;;;32.97;19.33;;;6.80;1.00;;;;;;5074833;28;20496;-54
2023/01/28 09:31:54;;;;;;;29.10;18.07;;;6.90;1.00;;;;;;5074916;28;20033;-53
2023/01/28 09:34:19;;;;;;;32.20;19.93;;;6.90;1.00;;;;;;5073739;28;20440;-53
2023/01/28 09:36:46;;;;;;;29.97;20.43;;;6.90;1.00;;;;;;5074630;28;20062;-52
2023/01/28 09:39:11;;;;;;;30.53;20.10;;;6.90;1.00;;;;;;5074868;28;20070;-54
2023/01/28 09:41:49;;;;;;;32.80;20.13;;;6.90;1.00;;;;;;5074423;28;20070;-54
2023/01/28 09:44:42;;;;;;;33.40;20.73;;;6.90;1.00;;;;;;5073357;28;20025;-51
2023/01/28 09:47:15;;;;;;;33.40;20.43;;;6.90;1.00;;;;;;5073452;28;20444;-54
2023/01/28 09:49:48;;;;;;;30.97;20.60;;;7.00;1.00;;;;;;5074501;28;20031;-53
2023/01/28 09:52:18;;;;;;;34.77;21.07;;;7.10;1.00;;;;;;5072871;28;20448;-52
2023/01/28 09:54:59;;;;;;;36.20;21.80;;;7.10;1.00;;;;;;5067507;28;20075;-51
2023/01/28 09:57:38;;;;;;;33.27;21.17;;;7.20;1.00;;;;;;5073949;28;20025;-53
2023/01/28 10:00:19;;;;;;;33.83;20.83;;;7.20;1.00;;;;;;5060975;28;20044;-51
2023/01/28 10:03:07;;;;;;;34.43;20.77;;;7.20;1.00;;;;;;5073931;28;20063;-54
2023/01/28 10:06:09;;;;;;;32.93;20.50;;;7.30;1.00;;;;;;5070905;28;20070;-52
2023/01/28 10:09:07;;;;;;;32.67;20.23;;;7.30;1.00;;;;;;5069356;28;20082;-51
2023/01/28 10:11:55;;;;;;;32.03;21.13;;;7.30;1.00;;;;;;5078136;28;20425;-51
2023/01/28 10:14:45;;;;;;;34.27;22.50;;;7.30;1.00;;;;;;5068651;28;20411;-54
2023/01/28 10:17:27;;;;;;;32.30;21.03;;;7.40;1.00;;;;;;5074173;28;20107;-51
2023/01/28 10:20:15;;;;;;;36.57;21.33;;;7.40;1.00;;;;;;5072572;28;20028;-54
2023/01/28 10:22:44;;;;;;;38.13;23.17;;;7.40;1.00;;;;;;5073617;28;20033;-51
2023/01/28 10:25:31;;;;;;;35.53;22.80;;;7.50;1.00;;;;;;5073382;28;20028;-52
2023/01/28 10:27:57;;;;;;;34.87;22.23;;;7.40;1.00;;;;;;5073624;28;20036;-55
2023/01/28 10:30:25;;;;;;;36.13;22.57;;;7.50;1.00;;;;;;5072043;28;20486;-52
2023/01/28 10:33:15;;;;;;;34.90;22.77;;;7.60;1.00;;;;;;5073485;28;20033;-55
2023/01/28 10:35:41;;;;;;;31.83;20.90;;;7.60;1.00;;;;;;5060734;28;20028;-52
2023/01/28 10:38:12;;;;;;;33.07;20.90;;;7.60;1.00;;;;;;5073498;28;20043;-51
2023/01/28 10:40:40;;;;;;;33.07;21.17;;;7.50;1.00;;;;;;5057428;28;20363;-50
2023/01/28 10:43:07;;;;;;;33.60;21.73;;;7.70;1.00;;;;;;5059424;28;20017;-53
2023/01/28 10:45:50;;;;;;;34.20;20.80;;;7.60;1.00;;;;;;5072066;28;20013;-50
2023/01/28 10:48:23;;;;;;;31.57;21.77;;;7.50;1.00;;;;;;5067272;28;20037;-51
2023/01/28 10:51:01;;;;;;;34.27;21.80;;;7.60;1.00;;;;;;5059758;28;20024;-54
2023/01/28 10:53:38;;;;;;;35.07;21.20;;;7.70;1.00;;;;;;5073295;28;20029;-51
2023/01/28 10:56:29;;;;;;;33.30;20.83;;;7.70;1.00;;;;;;5059185;28;20032;-51
2023/01/28 10:59:00;;;;;;;33.33;22.23;;;7.60;1.00;;;;;;5065488;28;20486;-51
2023/01/28 11:01:42;;;;;;;33.80;22.07;;;7.60;1.00;;;;;;5073087;28;20039;-50
2023/01/28 11:04:25;;;;;;;33.63;21.77;;;7.70;1.00;;;;;;5073103;28;20051;-51
2023/01/28 11:06:55;;;;;;;36.37;22.90;;;7.80;1.00;;;;;;5073212;28;20032;-51
2023/01/28 11:09:26;;;;;;;34.87;22.70;;;7.80;1.00;;;;;;5073112;28;20351;-51
2023/01/28 11:11:53;;;;;;;36.23;22.90;;;8.00;1.00;;;;;;5072853;28;20493;-52
2023/01/28 11:14:24;;;;;;;33.20;21.50;;;8.00;1.00;;;;;;5072792;28;20078;-51
2023/01/28 11:16:53;;;;;;;33.13;21.70;;;8.00;1.00;;;;;;5072945;28;20039;-54
2023/01/28 11:19:21;;;;;;;36.63;22.57;;;8.10;1.00;;;;;;5072693;28;20518;-51
2023/01/28 11:21:55;;;;;;;31.50;21.73;;;8.20;1.00;;;;;;5071245;28;20028;-52
2023/01/28 11:24:30;;;;;;;32.63;21.10;;;8.20;1.00;;;;;;5073135;28;20025;-51
2023/01/28 11:26:57;;;;;;;30.90;21.20;;;8.20;1.00;;;;;;5067137;28;20040;-53
2023/01/28 11:29:32;;;;;;;34.50;20.87;;;8.20;1.00;;;;;;5063949;28;20124;-56
2023/01/28 11:32:00;;;;;;;33.05;20.45;;;8.20;1.00;;;;;;5072777;28;20112;-51
2023/01/28 11:34:32;;;;;;;37.43;22.83;;;8.20;1.00;;;;;;5071108;28;20063;-53
2023/01/28 11:37:15;;;;;;;33.57;21.90;;;8.20;1.00;;;;;;5072364;28;20059;-54
2023/01/28 11:39:41;;;;;;;35.53;21.57;;;8.20;1.00;;;;;;5072481;28;20055;-56
2023/01/28 11:42:11;;;;;;;65.00;25.07;;;8.20;1.00;;;;;;5070032;28;20048;-56
